KFPY/FPY METAR and TAF weather

Enter ICAO airport designator
Station Type Date Time Source
KFPY METAR 2022/06/27 18:35 UTC NOAA

KFPY 271835Z AUTO 05007KT 10SM CLR 32/18 A3004 RMK AO2 T03240177


Station Type Date Time Source
KFPY Decoded METAR 2022/06/27 18:35 UTC NOAA

Station name not available
Jun 27, 2022 - 02:35 PM EDT / 2022.06.27 1835 UTC
Wind: from the NE (050 degrees) at 8 MPH (7 KT):0
Visibility: 10 mile(s):0
Sky conditions: clear
Temperature: 90.3 F (32.4 C)
Dew Point: 63.9 F (17.7 C)
Relative Humidity: 41%
Pressure (altimeter): 30.04 in. Hg (1017 hPa)
ob: KFPY 271835Z AUTO 05007KT 10SM CLR 32/18 A3004 RMK AO2 T03240177
cycle: 18

Station Type Date Time Source
KFPY TAF UTC NOAA

Error!

Example: see airport list